Time;durP1;ratioP1;P1;durP2;ratioP2;P2;SDS_P1;SDS_P2;PMS_P1;PMS_P2;Temp;Humidity;BMP_temperature;BMP_pressure;BME280_temperature;BME280_humidity;BME280_pressure;Samples;Min_cycle;Max_cycle;Signal;HPM_P1;HPM_P2
2021/12/16 00:01:41;;;;;;;6.28;2.45;;;;;;;;;;5115531;28;20041;-61
2021/12/16 00:03:41;;;;;;;12.20;2.22;;;;;;;;;;5115476;28;20490;-63
2021/12/16 00:08:56;;;;;;;4.30;2.25;;;;;;;;;;5014344;28;20075;-67
2021/12/16 00:19:29;;;;;;;5.63;2.42;;;;;;;;;;5093103;28;20051;-63
2021/12/16 00:33:16;;;;;;;4.45;1.90;;;;;;;;;;5094227;28;20151;-65
2021/12/16 00:35:43;;;;;;;4.72;1.85;;;;;;;;;;5094621;28;20031;-62
2021/12/16 00:38:09;;;;;;;4.50;2.03;;;;;;;;;;5094457;28;20034;-63
2021/12/16 00:40:40;;;;;;;5.63;2.45;;;;;;;;;;5094790;28;20020;-61
2021/12/16 00:43:17;;;;;;;11.25;2.35;;;;;;;;;;5094900;28;20028;-69
2021/12/16 00:46:10;;;;;;;6.35;1.95;;;;;;;;;;5094940;28;20085;-68
2021/12/16 00:54:11;;;;;;;4.18;2.17;;;;;;;;;;5074381;28;20063;-67
2021/12/16 00:56:38;;;;;;;3.55;1.90;;;;;;;;;;5074328;28;20020;-62
2021/12/16 00:59:07;;;;;;;4.60;2.42;;;;;;;;;;5072754;28;20031;-62
2021/12/16 01:02:15;;;;;;;9.50;1.80;;;;;;;;;;5074274;28;20039;-61
2021/12/16 01:33:27;;;;;;;4.47;2.15;;;;;;;;;;5074041;28;20031;-64
2021/12/16 01:35:04;;;;;;;3.75;1.88;;;;;;;;;;4991586;28;20029;-62
2021/12/16 01:50:37;;;;;;;4.88;1.80;;;;;;;;;;5011312;28;20498;-66
2021/12/16 01:56:10;;;;;;;2.92;1.77;;;;;;;;;;5018612;28;20037;-66
2021/12/16 01:58:36;;;;;;;2.35;1.70;;;;;;;;;;5010903;28;20154;-63
2021/12/16 02:03:43;;;;;;;2.30;1.52;;;;;;;;;;5010530;28;20036;-68
2021/12/16 02:08:51;;;;;;;5.53;1.63;;;;;;;;;;5010808;28;20436;-69
2021/12/16 02:28:19;;;;;;;5.93;1.55;;;;;;;;;;5114015;28;20055;-68
2021/12/16 02:38:47;;;;;;;2.08;1.60;;;;;;;;;;5113379;28;20028;-69
2021/12/16 02:41:13;;;;;;;2.67;1.55;;;;;;;;;;5078486;28;20026;-70
2021/12/16 02:44:06;;;;;;;7.93;1.60;;;;;;;;;;5010347;28;20115;-70
2021/12/16 02:49:10;;;;;;;7.30;1.58;;;;;;;;;;5010660;28;20211;-70
2021/12/16 02:51:36;;;;;;;1.80;1.50;;;;;;;;;;5010206;28;20385;-69
2021/12/16 02:54:04;;;;;;;4.25;1.75;;;;;;;;;;5079139;28;20022;-69
2021/12/16 02:56:31;;;;;;;5.70;1.60;;;;;;;;;;5013282;28;20059;-69
2021/12/16 02:58:57;;;;;;;3.50;1.38;;;;;;;;;;5013466;28;20021;-71
2021/12/16 03:01:36;;;;;;;2.30;1.63;;;;;;;;;;5013002;28;20026;-69
2021/12/16 03:04:03;;;;;;;3.42;1.40;;;;;;;;;;5081395;28;20022;-67
2021/12/16 03:06:31;;;;;;;3.08;1.30;;;;;;;;;;5013217;28;20063;-69
2021/12/16 03:08:58;;;;;;;6.20;1.52;;;;;;;;;;5013183;28;20024;-68
2021/12/16 03:12:01;;;;;;;3.17;1.63;;;;;;;;;;5012880;28;20124;-66
2021/12/16 03:14:38;;;;;;;6.45;1.70;;;;;;;;;;5080904;28;20036;-69
2021/12/16 03:19:53;;;;;;;5.68;1.92;;;;;;;;;;5013298;28;20358;-66
2021/12/16 03:22:43;;;;;;;2.80;1.55;;;;;;;;;;5013332;28;20110;-62
2021/12/16 03:26:00;;;;;;;6.75;1.60;;;;;;;;;;5014614;28;20393;-64
2021/12/16 03:36:04;;;;;;;3.30;1.70;;;;;;;;;;5012746;28;20040;-62
2021/12/16 03:38:31;;;;;;;4.15;1.50;;;;;;;;;;5012718;28;20171;-62
2021/12/16 03:40:57;;;;;;;3.65;1.45;;;;;;;;;;5080819;28;20026;-63
2021/12/16 03:43:23;;;;;;;2.78;1.70;;;;;;;;;;5012245;28;20025;-63
2021/12/16 03:48:40;;;;;;;5.38;1.55;;;;;;;;;;5012255;28;20037;-63
2021/12/16 03:51:06;;;;;;;;;;;;;;;;;;5052522;28;20455;-64
2021/12/16 03:53:32;;;;;;;2.65;1.73;;;;;;;;;;5115811;28;19914;-65
2021/12/16 03:55:58;;;;;;;2.42;1.58;;;;;;;;;;5115853;28;20035;-69
2021/12/16 03:58:24;;;;;;;2.75;1.45;;;;;;;;;;5115908;28;20020;-62
2021/12/16 04:00:53;;;;;;;3.65;1.48;;;;;;;;;;5115795;28;20358;-62
2021/12/16 04:03:19;;;;;;;3.08;1.80;;;;;;;;;;5115733;28;20031;-63
2021/12/16 04:05:45;;;;;;;2.17;1.30;;;;;;;;;;5115482;28;20447;-62
2021/12/16 04:08:11;;;;;;;3.55;1.40;;;;;;;;;;5115588;28;20474;-62
2021/12/16 04:10:44;;;;;;;2.15;1.38;;;;;;;;;;5115625;28;20388;-63
2021/12/16 04:13:12;;;;;;;;;;;;;;;;;;5116270;28;20111;-62
2021/12/16 04:15:38;;;;;;;2.78;1.20;;;;;;;;;;5115206;28;19908;-61
2021/12/16 04:18:04;;;;;;;2.42;1.40;;;;;;;;;;5097073;28;20022;-63
2021/12/16 04:20:30;;;;;;;4.10;1.45;;;;;;;;;;5115266;28;20363;-62
2021/12/16 04:22:56;;;;;;;8.20;1.50;;;;;;;;;;5115510;28;20027;-66
2021/12/16 04:25:24;;;;;;;2.75;1.35;;;;;;;;;;5115206;28;20099;-61
2021/12/16 04:27:53;;;;;;;4.20;1.58;;;;;;;;;;5115147;28;20035;-62
2021/12/16 04:30:20;;;;;;;2.40;1.38;;;;;;;;;;5115430;28;20020;-62
2021/12/16 04:32:46;;;;;;;6.57;1.33;;;;;;;;;;5114954;28;20498;-61
2021/12/16 04:35:12;;;;;;;5.93;1.35;;;;;;;;;;5115105;28;20047;-63
2021/12/16 04:37:38;;;;;;;2.95;1.30;;;;;;;;;;5096657;28;20029;-62
2021/12/16 04:40:07;;;;;;;4.28;1.30;;;;;;;;;;5115303;28;20053;-60
2021/12/16 04:42:35;;;;;;;4.13;1.27;;;;;;;;;;5115169;28;20106;-66
2021/12/16 04:45:01;;;;;;;2.78;1.20;;;;;;;;;;5115306;28;20826;-69
2021/12/16 04:47:29;;;;;;;5.80;1.45;;;;;;;;;;5083820;28;20030;-68
2021/12/16 04:49:55;;;;;;;2.75;1.30;;;;;;;;;;5031603;28;20361;-65
2021/12/16 04:52:21;;;;;;;2.85;1.40;;;;;;;;;;5067286;28;20475;-63
2021/12/16 04:54:47;;;;;;;1.90;1.40;;;;;;;;;;5115002;28;20100;-68
2021/12/16 04:57:14;;;;;;;7.13;1.20;;;;;;;;;;5115280;28;20102;-70
2021/12/16 04:59:40;;;;;;;8.85;1.40;;;;;;;;;;5114934;28;20030;-67
2021/12/16 05:02:14;;;;;;;3.47;1.00;;;;;;;;;;5114730;28;20020;-68
2021/12/16 05:04:41;;;;;;;7.50;1.60;;;;;;;;;;5027260;28;20026;-68
2021/12/16 05:07:08;;;;;;;6.93;1.15;;;;;;;;;;5011169;28;20026;-67
2021/12/16 05:12:07;;;;;;;3.23;1.30;;;;;;;;;;5011253;28;20053;-67
2021/12/16 05:14:33;;;;;;;3.55;1.38;;;;;;;;;;5010929;28;20264;-67
2021/12/16 05:16:59;;;;;;;2.38;1.15;;;;;;;;;;5010071;28;20034;-67
2021/12/16 05:19:25;;;;;;;3.28;1.30;;;;;;;;;;5068690;28;20026;-66
2021/12/16 05:21:58;;;;;;;5.80;1.40;;;;;;;;;;5114019;28;20024;-61
2021/12/16 05:24:27;;;;;;;3.08;1.23;;;;;;;;;;5095605;28;20106;-61
2021/12/16 05:26:58;;;;;;;3.53;1.45;;;;;;;;;;5114003;28;20521;-62
2021/12/16 05:29:25;;;;;;;3.38;1.40;;;;;;;;;;5113975;28;20030;-62
2021/12/16 05:31:51;;;;;;;5.25;1.20;;;;;;;;;;5113960;28;20035;-67
2021/12/16 05:34:17;;;;;;;1.98;1.42;;;;;;;;;;5113855;28;20379;-62
2021/12/16 05:36:44;;;;;;;3.05;1.27;;;;;;;;;;5113940;28;20027;-63
2021/12/16 05:39:11;;;;;;;4.10;1.08;;;;;;;;;;5010345;28;20022;-62
2021/12/16 05:41:37;;;;;;;2.25;1.17;;;;;;;;;;5010843;28;20022;-68
2021/12/16 05:44:03;;;;;;;3.10;1.20;;;;;;;;;;5011829;28;20028;-71
2021/12/16 05:46:30;;;;;;;5.30;1.30;;;;;;;;;;5011333;28;20071;-70
2021/12/16 05:48:57;;;;;;;3.17;1.50;;;;;;;;;;5010732;28;20082;-69
2021/12/16 05:51:28;;;;;;;4.38;1.50;;;;;;;;;;5010993;28;20026;-70
2021/12/16 05:53:54;;;;;;;5.57;1.42;;;;;;;;;;5010656;28;20026;-68
2021/12/16 05:56:20;;;;;;;1.98;1.30;;;;;;;;;;5010823;28;20370;-62
2021/12/16 05:58:46;;;;;;;1.90;1.17;;;;;;;;;;5011030;28;20022;-69
2021/12/16 06:01:15;;;;;;;1.55;1.10;;;;;;;;;;5010716;28;20022;-70
2021/12/16 06:03:42;;;;;;;3.90;1.15;;;;;;;;;;5010711;28;20030;-68
2021/12/16 06:06:08;;;;;;;1.83;1.13;;;;;;;;;;5010558;28;20036;-71
2021/12/16 06:08:34;;;;;;;2.97;1.40;;;;;;;;;;5011035;28;20033;-65
2021/12/16 06:11:13;;;;;;;3.00;1.20;;;;;;;;;;5010437;28;20082;-68
2021/12/16 06:13:46;;;;;;;6.65;1.33;;;;;;;;;;5010548;28;20068;-62
2021/12/16 06:27:14;;;;;;;7.57;1.30;;;;;;;;;;5010361;28;20049;-66
2021/12/16 06:29:41;;;;;;;4.78;1.40;;;;;;;;;;5014011;28;20026;-69
2021/12/16 06:32:08;;;;;;;3.85;1.50;;;;;;;;;;5014678;28;20043;-67
2021/12/16 06:34:34;;;;;;;14.75;1.58;;;;;;;;;;5082670;28;20508;-67
2021/12/16 06:37:00;;;;;;;7.45;1.55;;;;;;;;;;5057689;28;20096;-63
2021/12/16 06:39:26;;;;;;;9.45;1.40;;;;;;;;;;5111380;28;20016;-65
2021/12/16 06:41:52;;;;;;;17.02;1.58;;;;;;;;;;5074054;28;20034;-62
2021/12/16 06:44:26;;;;;;;16.30;1.75;;;;;;;;;;5117544;28;20378;-67
2021/12/16 06:46:57;;;;;;;6.55;1.65;;;;;;;;;;5117326;28;20554;-63
2021/12/16 06:49:24;;;;;;;2.97;1.58;;;;;;;;;;5098712;28;20110;-63
2021/12/16 06:51:55;;;;;;;4.82;1.50;;;;;;;;;;5063039;28;20024;-62
2021/12/16 06:54:27;;;;;;;5.88;1.30;;;;;;;;;;5110085;28;20030;-64
2021/12/16 06:57:12;;;;;;;5.85;1.42;;;;;;;;;;5012596;28;20057;-66
2021/12/16 06:59:40;;;;;;;5.32;1.67;;;;;;;;;;5013305;28;20034;-64
2021/12/16 07:02:31;;;;;;;11.85;1.90;;;;;;;;;;5013284;28;20029;-64
2021/12/16 07:04:57;;;;;;;3.13;1.38;;;;;;;;;;5013047;28;20022;-64
2021/12/16 07:07:23;;;;;;;4.93;1.80;;;;;;;;;;5013002;28;20037;-63
2021/12/16 07:09:49;;;;;;;3.22;1.25;;;;;;;;;;5081044;28;20032;-63
2021/12/16 07:12:23;;;;;;;2.05;1.50;;;;;;;;;;5066421;28;20044;-60
2021/12/16 07:14:49;;;;;;;13.18;1.80;;;;;;;;;;5013196;28;20030;-61
2021/12/16 07:17:16;;;;;;;11.73;2.05;;;;;;;;;;5012871;28;20033;-62
2021/12/16 07:19:44;;;;;;;44.00;2.03;;;;;;;;;;5083145;28;20027;-63
2021/12/16 07:22:11;;;;;;;12.25;2.17;;;;;;;;;;5065930;28;20047;-66
2021/12/16 07:24:37;;;;;;;18.67;2.40;;;;;;;;;;5057004;28;20106;-63
2021/12/16 07:27:04;;;;;;;15.98;2.00;;;;;;;;;;5050322;28;20026;-65
2021/12/16 07:29:30;;;;;;;7.95;2.15;;;;;;;;;;5054995;28;20022;-67
2021/12/16 07:31:59;;;;;;;10.77;1.80;;;;;;;;;;5072481;28;20110;-65
2021/12/16 07:34:25;;;;;;;4.65;1.80;;;;;;;;;;5097169;28;20011;-63
2021/12/16 07:36:51;;;;;;;8.40;1.65;;;;;;;;;;5058195;28;20064;-63
2021/12/16 07:39:18;;;;;;;11.63;2.05;;;;;;;;;;5079598;28;20018;-63
2021/12/16 07:41:47;;;;;;;5.53;2.05;;;;;;;;;;5040759;28;20092;-64
2021/12/16 07:44:15;;;;;;;8.27;2.05;;;;;;;;;;5083799;28;20027;-62
2021/12/16 07:46:52;;;;;;;4.20;1.80;;;;;;;;;;5040218;28;20050;-68
2021/12/16 07:49:20;;;;;;;8.63;1.77;;;;;;;;;;5066366;28;20031;-62
2021/12/16 07:51:46;;;;;;;7.00;1.75;;;;;;;;;;5096349;28;20100;-67
2021/12/16 07:54:14;;;;;;;7.57;2.10;;;;;;;;;;5090122;28;20030;-63
2021/12/16 07:56:41;;;;;;;7.55;2.22;;;;;;;;;;5070470;28;20039;-63
2021/12/16 07:59:08;;;;;;;5.97;2.60;;;;;;;;;;5036885;28;20047;-63
2021/12/16 08:01:35;;;;;;;8.30;2.38;;;;;;;;;;5085266;28;20020;-64
2021/12/16 08:04:01;;;;;;;4.85;2.10;;;;;;;;;;5092860;28;20065;-67
2021/12/16 08:06:28;;;;;;;4.43;2.28;;;;;;;;;;5040401;28;20037;-64
2021/12/16 08:09:06;;;;;;;3.15;2.25;;;;;;;;;;5068766;28;20020;-64
2021/12/16 08:11:33;;;;;;;5.32;2.20;;;;;;;;;;5078987;28;20571;-62
2021/12/16 08:14:00;;;;;;;9.30;2.38;;;;;;;;;;5035178;28;20090;-62
2021/12/16 08:16:25;;;;;;;4.82;2.40;;;;;;;;;;5016882;28;20470;-66
2021/12/16 08:18:52;;;;;;;5.85;2.65;;;;;;;;;;5068959;28;20062;-66
2021/12/16 08:21:19;;;;;;;13.55;2.60;;;;;;;;;;5090877;28;20065;-62
2021/12/16 08:23:45;;;;;;;4.22;2.05;;;;;;;;;;5088638;28;20453;-63
2021/12/16 08:26:11;;;;;;;6.18;2.22;;;;;;;;;;5086044;28;20037;-63
2021/12/16 08:28:37;;;;;;;7.72;2.20;;;;;;;;;;5081038;28;20471;-62
2021/12/16 08:31:06;;;;;;;16.27;2.35;;;;;;;;;;5066283;28;20055;-65
2021/12/16 08:33:33;;;;;;;3.90;1.90;;;;;;;;;;5071232;28;20107;-62
2021/12/16 08:35:59;;;;;;;2.97;2.08;;;;;;;;;;5063854;28;20042;-63
2021/12/16 08:38:26;;;;;;;8.63;2.10;;;;;;;;;;5053276;28;20471;-62
2021/12/16 08:40:56;;;;;;;6.13;2.25;;;;;;;;;;5067521;28;20769;-62
2021/12/16 08:43:23;;;;;;;4.50;2.22;;;;;;;;;;5067387;28;20455;-62
2021/12/16 08:45:49;;;;;;;3.15;1.95;;;;;;;;;;5053083;28;20030;-62
2021/12/16 08:48:15;;;;;;;4.07;2.20;;;;;;;;;;5027811;28;20083;-63
2021/12/16 08:50:44;;;;;;;3.65;2.00;;;;;;;;;;5092398;28;20076;-63
2021/12/16 08:53:11;;;;;;;3.50;2.10;;;;;;;;;;5090467;28;20127;-64
2021/12/16 08:55:38;;;;;;;6.90;1.90;;;;;;;;;;5114548;28;20037;-62
2021/12/16 08:58:05;;;;;;;2.17;1.98;;;;;;;;;;5037363;28;20038;-62
2021/12/16 09:00:33;;;;;;;3.33;2.33;;;;;;;;;;5010697;28;20057;-62
2021/12/16 09:02:59;;;;;;;8.00;2.55;;;;;;;;;;5010044;28;20030;-62
2021/12/16 09:05:26;;;;;;;7.82;2.53;;;;;;;;;;5077808;28;20094;-62
2021/12/16 09:07:52;;;;;;;14.15;2.53;;;;;;;;;;5010875;28;20363;-62
2021/12/16 09:10:25;;;;;;;9.23;2.40;;;;;;;;;;5010798;28;20484;-62
2021/12/16 09:15:19;;;;;;;9.60;2.58;;;;;;;;;;5011139;28;20033;-63
2021/12/16 09:17:45;;;;;;;4.55;2.17;;;;;;;;;;5078081;28;20068;-63
2021/12/16 09:20:11;;;;;;;8.77;2.38;;;;;;;;;;5100162;28;20020;-62
2021/12/16 09:22:38;;;;;;;10.52;2.80;;;;;;;;;;5113931;28;20027;-63
2021/12/16 09:25:04;;;;;;;7.20;2.28;;;;;;;;;;5113689;28;20015;-62
2021/12/16 09:27:30;;;;;;;6.07;2.20;;;;;;;;;;5113575;28;20470;-62
2021/12/16 09:29:57;;;;;;;10.68;2.70;;;;;;;;;;5113548;28;20043;-62
2021/12/16 09:32:26;;;;;;;16.83;3.08;;;;;;;;;;5113468;28;20514;-62
2021/12/16 09:34:53;;;;;;;8.93;2.30;;;;;;;;;;5113441;28;20480;-62
2021/12/16 09:37:19;;;;;;;3.95;2.70;;;;;;;;;;5113409;28;20051;-63
2021/12/16 09:39:45;;;;;;;2.47;2.00;;;;;;;;;;5113760;28;20019;-63
2021/12/16 09:42:11;;;;;;;4.47;2.60;;;;;;;;;;5113463;28;20094;-63
2021/12/16 09:44:38;;;;;;;4.10;2.30;;;;;;;;;;5113280;28;20412;-63
2021/12/16 09:47:06;;;;;;;5.72;2.50;;;;;;;;;;5113410;28;20447;-62
2021/12/16 09:49:32;;;;;;;6.88;2.20;;;;;;;;;;5094925;28;20027;-62
2021/12/16 09:51:59;;;;;;;4.53;2.55;;;;;;;;;;5113458;28;20028;-62
2021/12/16 09:54:28;;;;;;;4.13;2.78;;;;;;;;;;5113341;28;20024;-63
2021/12/16 09:56:55;;;;;;;4.53;2.45;;;;;;;;;;5113684;28;20054;-65
2021/12/16 09:59:22;;;;;;;5.63;2.55;;;;;;;;;;5113065;28;20060;-62
2021/12/16 10:01:50;;;;;;;5.93;2.72;;;;;;;;;;5113449;28;20106;-62
2021/12/16 10:04:21;;;;;;;4.10;2.35;;;;;;;;;;5112763;28;20030;-63
2021/12/16 10:06:49;;;;;;;3.28;2.42;;;;;;;;;;5113301;28;20051;-63
2021/12/16 10:09:16;;;;;;;8.18;2.60;;;;;;;;;;5113230;28;20024;-63
2021/12/16 10:11:44;;;;;;;4.18;2.35;;;;;;;;;;5112778;28;20387;-63
2021/12/16 10:19:23;;;;;;;4.47;2.35;;;;;;;;;;5056921;28;20052;-63
2021/12/16 10:21:49;;;;;;;4.13;2.65;;;;;;;;;;5010084;28;20033;-62
2021/12/16 10:24:27;;;;;;;2.85;2.42;;;;;;;;;;5008700;28;20022;-62
2021/12/16 10:27:07;;;;;;;4.60;2.22;;;;;;;;;;5009965;28;20022;-62
2021/12/16 10:29:37;;;;;;;4.18;2.15;;;;;;;;;;5009640;28;20183;-63
2021/12/16 10:32:04;;;;;;;2.97;2.33;;;;;;;;;;5008805;28;20029;-63
2021/12/16 10:34:30;;;;;;;3.30;2.20;;;;;;;;;;5008379;28;20120;-63
2021/12/16 10:36:58;;;;;;;2.95;2.00;;;;;;;;;;5009823;28;20022;-63
2021/12/16 10:39:26;;;;;;;4.45;2.72;;;;;;;;;;5009579;28;20029;-63
2021/12/16 10:41:59;;;;;;;2.78;2.10;;;;;;;;;;5009655;28;20106;-63
2021/12/16 10:44:27;;;;;;;4.85;2.20;;;;;;;;;;5009497;28;20030;-62
2021/12/16 10:47:01;;;;;;;4.60;2.45;;;;;;;;;;5009707;28;20034;-63
2021/12/16 10:49:30;;;;;;;6.43;2.70;;;;;;;;;;5008383;28;20030;-62
2021/12/16 10:51:58;;;;;;;2.33;2.05;;;;;;;;;;5036377;28;20498;-63
2021/12/16 10:54:25;;;;;;;3.88;2.30;;;;;;;;;;5112913;28;20042;-62
2021/12/16 10:56:57;;;;;;;4.22;2.55;;;;;;;;;;5112838;28;20028;-63
2021/12/16 10:59:34;;;;;;;2.63;2.22;;;;;;;;;;5112304;28;20379;-63
2021/12/16 11:02:03;;;;;;;3.53;2.60;;;;;;;;;;5112828;28;20051;-62
2021/12/16 11:04:31;;;;;;;4.35;2.50;;;;;;;;;;5094436;28;20028;-62
2021/12/16 11:07:00;;;;;;;5.88;2.33;;;;;;;;;;5112896;28;20023;-62
2021/12/16 11:09:32;;;;;;;4.15;2.47;;;;;;;;;;5112549;28;20023;-62
2021/12/16 11:12:09;;;;;;;4.22;2.63;;;;;;;;;;5112436;28;20594;-61
2021/12/16 11:14:35;;;;;;;3.42;2.58;;;;;;;;;;5113190;28;20106;-62
2021/12/16 11:17:03;;;;;;;6.88;2.53;;;;;;;;;;5116410;28;20024;-62
2021/12/16 11:19:40;;;;;;;4.38;2.50;;;;;;;;;;5045547;28;20347;-62
2021/12/16 11:22:07;;;;;;;2.83;2.40;;;;;;;;;;5013199;28;20032;-62
2021/12/16 11:24:33;;;;;;;3.72;2.40;;;;;;;;;;5012846;28;20029;-62
2021/12/16 11:26:59;;;;;;;3.70;2.40;;;;;;;;;;5011423;28;20026;-63
2021/12/16 11:29:32;;;;;;;4.00;2.60;;;;;;;;;;5012650;28;20548;-63
2021/12/16 11:31:58;;;;;;;3.83;2.60;;;;;;;;;;5013072;28;20160;-63
2021/12/16 11:34:24;;;;;;;6.38;3.00;;;;;;;;;;5012594;28;20447;-63
2021/12/16 11:36:53;;;;;;;5.15;2.60;;;;;;;;;;5012973;28;20030;-64
2021/12/16 11:39:29;;;;;;;4.32;2.78;;;;;;;;;;5012660;28;20022;-62
2021/12/16 11:42:01;;;;;;;5.28;2.50;;;;;;;;;;5012474;28;20022;-65
2021/12/16 11:44:28;;;;;;;3.33;2.38;;;;;;;;;;5011268;28;20566;-61
2021/12/16 11:47:01;;;;;;;5.32;2.40;;;;;;;;;;5012255;28;20488;-64
2021/12/16 11:49:42;;;;;;;4.78;2.50;;;;;;;;;;5080516;28;20124;-67
2021/12/16 11:52:28;;;;;;;3.88;2.70;;;;;;;;;;5069260;28;20042;-62
2021/12/16 11:54:54;;;;;;;3.58;2.70;;;;;;;;;;5066231;28;20035;-65
2021/12/16 11:57:25;;;;;;;5.78;2.85;;;;;;;;;;5012043;28;20357;-61
2021/12/16 12:00:05;;;;;;;7.20;3.00;;;;;;;;;;5012129;28;20026;-62
2021/12/16 12:02:32;;;;;;;8.00;3.05;;;;;;;;;;5040471;28;20383;-62
2021/12/16 12:05:19;;;;;;;5.65;2.80;;;;;;;;;;5084385;28;20031;-64
2021/12/16 12:07:46;;;;;;;7.13;3.08;;;;;;;;;;5115711;28;20456;-63
2021/12/16 12:10:15;;;;;;;5.47;2.70;;;;;;;;;;5115674;28;20032;-62
2021/12/16 12:12:46;;;;;;;5.90;3.25;;;;;;;;;;5115336;28;20051;-62
2021/12/16 12:15:13;;;;;;;6.28;3.33;;;;;;;;;;5115300;28;20019;-59
2021/12/16 12:17:44;;;;;;;4.90;2.88;;;;;;;;;;5098991;28;20039;-60
2021/12/16 12:20:10;;;;;;;4.93;2.90;;;;;;;;;;5115227;28;20016;-66
2021/12/16 12:22:36;;;;;;;4.43;2.88;;;;;;;;;;5115035;28;20023;-61
2021/12/16 12:25:02;;;;;;;7.43;3.17;;;;;;;;;;5115086;28;20103;-60
2021/12/16 12:27:28;;;;;;;5.80;3.05;;;;;;;;;;5114866;28;20480;-61
2021/12/16 12:29:56;;;;;;;6.95;3.10;;;;;;;;;;5089182;28;20097;-65
2021/12/16 12:32:30;;;;;;;10.82;3.40;;;;;;;;;;5051085;28;20048;-66
2021/12/16 12:35:06;;;;;;;6.78;2.88;;;;;;;;;;5049736;28;20509;-65
2021/12/16 12:37:34;;;;;;;5.55;2.85;;;;;;;;;;5011625;28;20777;-64
2021/12/16 12:40:20;;;;;;;4.43;2.70;;;;;;;;;;5011976;28;20030;-65
2021/12/16 12:42:47;;;;;;;8.23;2.67;;;;;;;;;;5011547;28;20079;-64
2021/12/16 12:45:14;;;;;;;3.83;2.30;;;;;;;;;;5009086;28;20500;-61
2021/12/16 12:47:43;;;;;;;4.50;2.85;;;;;;;;;;5088231;28;20042;-65
2021/12/16 12:50:24;;;;;;;3.53;2.45;;;;;;;;;;5114691;28;20106;-62
2021/12/16 12:52:52;;;;;;;8.02;3.03;;;;;;;;;;5069576;28;20100;-62
2021/12/16 12:55:20;;;;;;;4.60;2.72;;;;;;;;;;5114676;28;20016;-63
2021/12/16 12:57:47;;;;;;;6.70;3.30;;;;;;;;;;5114752;28;20027;-62
2021/12/16 13:00:25;;;;;;;6.53;2.42;;;;;;;;;;5114431;28;20448;-62
2021/12/16 13:02:56;;;;;;;4.07;2.50;;;;;;;;;;5114336;28;20479;-65
2021/12/16 13:05:22;;;;;;;8.30;2.55;;;;;;;;;;5025186;28;20038;-61
2021/12/16 13:07:54;;;;;;;4.78;2.70;;;;;;;;;;5011178;28;20048;-65
2021/12/16 13:10:22;;;;;;;6.17;2.83;;;;;;;;;;5011191;28;20078;-61
2021/12/16 13:15:29;;;;;;;13.60;3.47;;;;;;;;;;5011160;28;20099;-62
2021/12/16 13:23:32;;;;;;;7.00;2.60;;;;;;;;;;5011136;28;20498;-65
2021/12/16 13:26:31;;;;;;;7.35;2.85;;;;;;;;;;5010562;28;20042;-63
2021/12/16 13:29:04;;;;;;;6.55;2.67;;;;;;;;;;5084974;28;20045;-63
2021/12/16 13:31:59;;;;;;;6.20;2.70;;;;;;;;;;5113477;28;20016;-62
2021/12/16 13:34:26;;;;;;;4.60;2.67;;;;;;;;;;5095524;28;20043;-62
2021/12/16 13:36:56;;;;;;;5.20;2.80;;;;;;;;;;5113537;28;20027;-63
2021/12/16 13:39:24;;;;;;;12.07;2.47;;;;;;;;;;5113351;28;20058;-63
2021/12/16 13:42:05;;;;;;;6.00;2.70;;;;;;;;;;5113488;28;20031;-64
2021/12/16 13:44:37;;;;;;;9.48;2.90;;;;;;;;;;5082805;28;20353;-64
2021/12/16 14:06:16;;;;;;;5.47;2.30;;;;;;;;;;5113395;28;20434;-63
2021/12/16 14:08:48;;;;;;;6.85;2.70;;;;;;;;;;5113090;28;20092;-64
2021/12/16 14:14:49;;;;;;;7.03;2.75;;;;;;;;;;5113129;28;20518;-63
2021/12/16 14:17:39;;;;;;;5.00;2.70;;;;;;;;;;5108460;28;20456;-63
2021/12/16 14:23:15;;;;;;;3.75;2.17;;;;;;;;;;5113158;28;20088;-63
2021/12/16 14:50:03;;;;;;;6.18;2.40;;;;;;;;;;5018533;28;20061;-68
2021/12/16 14:52:32;;;;;;;6.53;2.53;;;;;;;;;;5084742;28;20023;-65
2021/12/16 14:55:18;;;;;;;8.10;3.13;;;;;;;;;;5081484;28;20044;-66
2021/12/16 14:57:46;;;;;;;4.82;2.70;;;;;;;;;;5013218;28;20108;-67
2021/12/16 15:00:18;;;;;;;12.32;3.17;;;;;;;;;;5013117;28;20056;-67
2021/12/16 15:02:46;;;;;;;13.33;2.90;;;;;;;;;;5081182;28;20018;-65
2021/12/16 15:05:27;;;;;;;6.65;2.88;;;;;;;;;;5012711;28;20082;-67
2021/12/16 15:07:55;;;;;;;8.52;2.78;;;;;;;;;;5012997;28;20389;-65
2021/12/16 15:10:22;;;;;;;7.97;2.65;;;;;;;;;;5081109;28;20028;-67
2021/12/16 15:12:59;;;;;;;8.93;3.28;;;;;;;;;;5012510;28;20088;-65
2021/12/16 15:16:10;;;;;;;5.47;2.83;;;;;;;;;;5012698;28;20022;-66
2021/12/16 15:33:37;;;;;;;9.07;2.65;;;;;;;;;;5116126;28;20085;-65
2021/12/16 15:43:01;;;;;;;12.32;3.28;;;;;;;;;;5012872;28;20441;-64
2021/12/16 15:45:30;;;;;;;8.85;2.63;;;;;;;;;;5012213;28;20389;-63
2021/12/16 15:48:01;;;;;;;8.68;2.63;;;;;;;;;;5012394;28;20014;-63
2021/12/16 15:50:27;;;;;;;6.72;2.60;;;;;;;;;;5012388;28;20033;-63
2021/12/16 15:52:54;;;;;;;6.78;2.70;;;;;;;;;;5097389;28;20229;-63
2021/12/16 15:55:22;;;;;;;12.07;2.90;;;;;;;;;;5115774;28;20077;-64
2021/12/16 15:57:48;;;;;;;9.15;2.40;;;;;;;;;;5115515;28;20067;-63
2021/12/16 16:00:18;;;;;;;6.97;2.45;;;;;;;;;;5097069;28;20093;-62
2021/12/16 16:02:44;;;;;;;3.88;2.55;;;;;;;;;;5115731;28;20027;-63
2021/12/16 16:05:11;;;;;;;5.85;2.60;;;;;;;;;;5115579;28;20049;-69
2021/12/16 16:07:38;;;;;;;7.70;2.75;;;;;;;;;;5115709;28;20024;-67
2021/12/16 16:10:05;;;;;;;7.88;2.78;;;;;;;;;;5115548;28;20051;-63
2021/12/16 16:12:33;;;;;;;8.60;3.00;;;;;;;;;;5115354;28;20112;-66
2021/12/16 16:15:15;;;;;;;11.70;4.20;;;;;;;;;;5115635;28;20020;-64
2021/12/16 16:17:45;;;;;;;20.75;6.68;;;;;;;;;;5069679;28;20053;-64
2021/12/16 16:20:11;;;;;;;13.70;4.40;;;;;;;;;;5103283;28;20023;-67
2021/12/16 16:22:37;;;;;;;12.18;3.72;;;;;;;;;;5099233;28;20027;-66
2021/12/16 16:25:04;;;;;;;7.68;3.45;;;;;;;;;;5096983;28;20483;-64
2021/12/16 16:27:30;;;;;;;20.05;4.07;;;;;;;;;;5115643;28;20463;-66
2021/12/16 16:29:59;;;;;;;10.15;4.15;;;;;;;;;;5079351;28;20042;-64
2021/12/16 16:32:28;;;;;;;14.95;4.22;;;;;;;;;;5068459;28;20027;-66
2021/12/16 16:34:55;;;;;;;9.25;4.38;;;;;;;;;;5071726;28;20042;-65
2021/12/16 16:37:40;;;;;;;11.27;4.53;;;;;;;;;;5070406;28;20065;-70
2021/12/16 16:40:08;;;;;;;13.63;5.30;;;;;;;;;;4992195;28;20374;-65
2021/12/16 16:42:39;;;;;;;15.13;4.88;;;;;;;;;;4992730;28;20482;-67
2021/12/16 16:45:07;;;;;;;14.57;4.93;;;;;;;;;;5004331;28;20055;-68
2021/12/16 16:47:46;;;;;;;11.57;4.90;;;;;;;;;;5011612;28;20030;-66
2021/12/16 16:50:13;;;;;;;19.42;4.88;;;;;;;;;;5011996;28;20041;-67
2021/12/16 16:52:40;;;;;;;13.50;5.03;;;;;;;;;;5114571;28;20035;-65
2021/12/16 16:55:06;;;;;;;15.45;5.25;;;;;;;;;;5096256;28;20039;-65
2021/12/16 16:57:34;;;;;;;18.83;4.85;;;;;;;;;;5114493;28;20486;-66
2021/12/16 17:00:05;;;;;;;11.15;4.95;;;;;;;;;;5114517;28;20026;-66
2021/12/16 17:02:31;;;;;;;11.48;4.82;;;;;;;;;;5114780;28;20489;-65
2021/12/16 17:05:10;;;;;;;7.78;3.80;;;;;;;;;;5114413;28;20023;-65
2021/12/16 17:07:45;;;;;;;8.48;4.25;;;;;;;;;;5096263;28;20016;-67
2021/12/16 17:10:19;;;;;;;10.68;4.03;;;;;;;;;;5114526;28;20096;-63
2021/12/16 17:12:45;;;;;;;13.45;4.38;;;;;;;;;;5113219;28;20051;-64
2021/12/16 17:15:30;;;;;;;9.77;4.03;;;;;;;;;;5114435;28;20019;-65
2021/12/16 17:17:56;;;;;;;11.20;4.50;;;;;;;;;;5051874;28;20032;-66
2021/12/16 17:20:23;;;;;;;8.07;4.13;;;;;;;;;;5079740;28;20015;-65
2021/12/16 17:22:52;;;;;;;9.25;4.10;;;;;;;;;;5025066;28;20026;-65
2021/12/16 17:25:19;;;;;;;13.93;4.10;;;;;;;;;;5010863;28;20021;-65
2021/12/16 17:27:49;;;;;;;9.20;3.47;;;;;;;;;;5010988;28;20030;-65
2021/12/16 17:30:21;;;;;;;6.82;3.90;;;;;;;;;;5010864;28;20061;-64
2021/12/16 17:32:48;;;;;;;9.93;4.22;;;;;;;;;;5010861;28;20030;-65
2021/12/16 17:35:24;;;;;;;11.32;3.92;;;;;;;;;;5010815;28;20045;-66
2021/12/16 17:38:06;;;;;;;11.30;3.78;;;;;;;;;;5010845;28;20347;-64
2021/12/16 17:40:37;;;;;;;7.75;3.50;;;;;;;;;;5010878;28;20026;-65
2021/12/16 17:43:06;;;;;;;6.97;3.42;;;;;;;;;;5010735;28;20083;-66
2021/12/16 17:45:34;;;;;;;7.80;3.63;;;;;;;;;;5010641;28;20121;-65
2021/12/16 17:48:02;;;;;;;6.53;3.20;;;;;;;;;;5009910;28;20049;-64
2021/12/16 17:50:37;;;;;;;9.95;3.78;;;;;;;;;;5061288;28;20023;-64
2021/12/16 17:53:03;;;;;;;9.60;4.00;;;;;;;;;;5114094;28;20518;-68
2021/12/16 17:55:35;;;;;;;10.23;3.92;;;;;;;;;;5113979;28;20039;-70
2021/12/16 17:58:03;;;;;;;14.53;4.40;;;;;;;;;;5114205;28;20016;-70
2021/12/16 18:00:29;;;;;;;10.88;4.60;;;;;;;;;;5113959;28;20020;-70
2021/12/16 18:02:55;;;;;;;8.13;3.55;;;;;;;;;;5095799;28;20034;-70
2021/12/16 18:05:22;;;;;;;10.52;3.83;;;;;;;;;;5113885;28;20020;-70
2021/12/16 18:07:48;;;;;;;7.00;3.83;;;;;;;;;;5023969;28;20504;-69
2021/12/16 18:10:16;;;;;;;7.07;3.88;;;;;;;;;;5010623;28;20018;-71
2021/12/16 18:12:44;;;;;;;10.40;4.05;;;;;;;;;;5011328;28;20073;-66
2021/12/16 18:15:14;;;;;;;9.45;4.30;;;;;;;;;;5011053;28;20062;-70
2021/12/16 18:17:42;;;;;;;11.73;4.47;;;;;;;;;;5010338;28;20022;-69
2021/12/16 18:20:27;;;;;;;8.77;3.63;;;;;;;;;;5098868;28;20070;-68
2021/12/16 18:22:55;;;;;;;9.15;4.00;;;;;;;;;;5113799;28;20073;-68
2021/12/16 18:25:26;;;;;;;17.50;4.95;;;;;;;;;;5113057;28;20026;-68
2021/12/16 18:28:03;;;;;;;7.45;3.80;;;;;;;;;;5094384;28;20035;-69
2021/12/16 18:30:41;;;;;;;12.63;4.20;;;;;;;;;;5020600;28;20129;-69
2021/12/16 18:33:09;;;;;;;8.02;3.28;;;;;;;;;;5010358;28;20030;-64
2021/12/16 18:35:36;;;;;;;29.70;4.05;;;;;;;;;;5010295;28;20521;-64